Time,TemperatureF,DewpointF,PressureIn,WindDirection,WindDirectionDegrees,WindSpeedMPH,WindSpeedGustMPH,Humidity,HourlyPrecipIn,Conditions,Clouds,dailyrainin,SoftwareType,DateUTC
2013-01-11 00:05:00,29.9,25.7,30.54,NNE,31,0.0,0.0,84,0.00,CLR,,0.00,WeatherDisplay:10.37,2013-01-11 05:05:00,
2013-01-11 00:10:00,29.0,24.8,30.54,NNE,31,0.0,0.0,84,0.00,CLR,,0.00,WeatherDisplay:10.37,2013-01-11 05:10:00,
2013-01-11 00:15:00,28.9,24.6,30.54,NNE,31,0.0,0.0,84,0.00,CLR,,0.00,WeatherDisplay:10.37,2013-01-11 05:15:00,
2013-01-11 00:20:00,28.6,24.4,30.54,NNE,31,0.0,0.0,84,0.00,CLR,,0.00,WeatherDisplay:10.37,2013-01-11 05:20:00,
2013-01-11 00:25:00,28.9,24.7,30.54,NNE,31,0.0,0.0,84,0.00,CLR,,0.00,WeatherDisplay:10.37,2013-01-11 05:25:00,
2013-01-11 00:30:00,28.7,24.5,30.54,NNE,31,0.0,0.0,84,0.00,CLR,,0.00,WeatherDisplay:10.37,2013-01-11 05:30:00,
2013-01-11 00:35:00,28.5,24.3,30.53,NNE,31,0.0,0.0,84,0.00,CLR,,0.00,WeatherDisplay:10.37,2013-01-11 05:35:00,
2013-01-11 00:40:00,27.9,23.7,30.53,NNE,31,0.0,0.0,84,0.00,CLR,,0.00,WeatherDisplay:10.37,2013-01-11 05:40:00,
2013-01-11 00:45:00,28.1,23.9,30.53,NNE,31,0.0,0.0,84,0.00,CLR,,0.00,WeatherDisplay:10.37,2013-01-11 05:45:00,
2013-01-11 00:50:00,28.6,24.3,30.53,NNE,31,0.0,0.0,84,0.00,CLR,,0.00,WeatherDisplay:10.37,2013-01-11 05:50:00,
2013-01-11 00:55:00,28.4,24.2,30.54,NNE,31,0.0,0.0,84,0.00,CLR,,0.00,WeatherDisplay:10.37,2013-01-11 05:55:00,
2013-01-11 01:05:00,27.0,22.6,30.54,NNE,31,0.0,0.0,83,0.00,CLR,,0.00,WeatherDisplay:10.37,2013-01-11 06:05:00,
2013-01-11 01:10:00,26.9,22.4,30.53,NNE,31,0.0,0.0,83,0.00,CLR,,0.00,WeatherDisplay:10.37,2013-01-11 06:10:00,
2013-01-11 01:15:00,26.8,22.3,30.53,NNE,31,0.0,0.0,83,0.00,CLR,,0.00,WeatherDisplay:10.37,2013-01-11 06:15:00,
2013-01-11 01:20:00,27.0,22.5,30.53,NNE,31,0.0,0.0,83,0.00,CLR,,0.00,WeatherDisplay:10.37,2013-01-11 06:20:00,
2013-01-11 01:25:00,27.0,22.5,30.53,NNE,31,0.0,0.0,83,0.00,CLR,,0.00,WeatherDisplay:10.37,2013-01-11 06:25:00,
2013-01-11 01:30:00,27.7,23.2,30.52,NNE,31,0.0,0.0,83,0.00,CLR,,0.00,WeatherDisplay:10.37,2013-01-11 06:30:00,
2013-01-11 01:35:00,27.5,23.0,30.52,NNE,31,0.0,0.0,83,0.00,CLR,,0.00,WeatherDisplay:10.37,2013-01-11 06:35:00,
2013-01-11 01:40:00,28.3,23.8,30.53,NNE,31,0.0,0.0,83,0.00,CLR,,0.00,WeatherDisplay:10.37,2013-01-11 06:40:00,
2013-01-11 01:45:00,27.0,22.5,30.53,NNE,31,0.0,0.0,83,0.00,CLR,,0.00,WeatherDisplay:10.37,2013-01-11 06:45:00,
2013-01-11 01:50:00,27.7,23.2,30.53,NNE,31,0.0,0.0,83,0.00,CLR,,0.00,WeatherDisplay:10.37,2013-01-11 06:50:00,
2013-01-11 02:00:00,27.0,22.6,30.53,NNE,31,0.0,0.0,83,0.00,CLR,,0.00,WeatherDisplay:10.37,2013-01-11 07:00:00,
2013-01-11 02:10:00,26.5,24.3,30.53,NNE,31,0.0,0.0,91,0.00,CLR,,0.00,WeatherDisplay:10.37,2013-01-11 07:10:00,
2013-01-11 02:15:00,26.0,23.8,30.53,NNE,31,0.0,0.0,91,0.00,CLR,,0.00,WeatherDisplay:10.37,2013-01-11 07:15:00,
2013-01-11 02:20:00,25.8,23.6,30.53,NNE,31,0.0,0.0,91,0.00,CLR,,0.00,WeatherDisplay:10.37,2013-01-11 07:20:00,
2013-01-11 02:25:00,25.2,23.0,30.53,NNE,31,0.0,0.0,91,0.00,CLR,,0.00,WeatherDisplay:10.37,2013-01-11 07:25:00,
2013-01-11 02:30:00,26.2,23.9,30.53,NNE,31,0.0,0.0,91,0.00,CLR,,0.00,WeatherDisplay:10.37,2013-01-11 07:30:00,
2013-01-11 02:35:00,25.5,23.2,30.53,NNE,31,0.0,0.0,91,0.00,CLR,,0.00,WeatherDisplay:10.37,2013-01-11 07:35:00,
2013-01-11 02:45:00,26.8,24.5,30.52,NNE,31,0.0,0.0,91,0.00,CLR,,0.00,WeatherDisplay:10.37,2013-01-11 07:45:00,
2013-01-11 02:50:00,25.3,23.1,30.51,NNE,31,0.0,0.0,91,0.00,CLR,,0.00,WeatherDisplay:10.37,2013-01-11 07:50:00,
2013-01-11 03:00:00,25.8,23.5,30.51,NNE,31,0.0,0.0,91,0.00,CLR,,0.00,WeatherDisplay:10.37,2013-01-11 08:00:00,
2013-01-11 03:05:00,27.0,24.7,30.51,NNE,31,0.0,0.0,91,0.00,CLR,,0.00,WeatherDisplay:10.37,2013-01-11 08:05:00,
2013-01-11 03:10:00,25.0,22.8,30.50,NNE,31,0.0,0.0,91,0.00,CLR,,0.00,WeatherDisplay:10.37,2013-01-11 08:10:00,
2013-01-11 03:15:00,25.2,23.0,30.50,NNE,31,0.0,0.0,91,0.00,CLR,,0.00,WeatherDisplay:10.37,2013-01-11 08:15:00,
2013-01-11 03:20:00,26.6,24.4,30.50,NNE,31,0.0,0.0,91,0.00,CLR,,0.00,WeatherDisplay:10.37,2013-01-11 08:20:00,
2013-01-11 03:25:00,25.9,23.6,30.50,NNE,31,0.0,0.0,91,0.00,CLR,,0.00,WeatherDisplay:10.37,2013-01-11 08:25:00,
2013-01-11 03:30:00,26.3,24.0,30.50,NNE,31,0.0,0.0,91,0.00,CLR,,0.00,WeatherDisplay:10.37,2013-01-11 08:30:00,
2013-01-11 03:35:00,25.0,22.8,30.50,NNE,31,0.0,0.0,91,0.00,CLR,,0.00,WeatherDisplay:10.37,2013-01-11 08:35:00,
2013-01-11 03:45:00,24.7,22.4,30.50,NNE,31,0.0,0.0,91,0.00,CLR,,0.00,WeatherDisplay:10.37,2013-01-11 08:45:00,
2013-01-11 03:55:00,26.3,24.0,30.51,NNE,31,0.0,0.0,91,0.00,CLR,,0.00,WeatherDisplay:10.37,2013-01-11 08:55:00,
2013-01-11 04:00:00,24.8,22.5,30.51,NNE,31,0.0,0.0,91,0.00,CLR,,0.00,WeatherDisplay:10.37,2013-01-11 09:00:00,
2013-01-11 04:05:00,24.6,22.3,30.50,NNE,31,0.0,0.0,91,0.00,CLR,,0.00,WeatherDisplay:10.37,2013-01-11 09:05:00,
2013-01-11 04:10:00,25.9,23.6,30.50,NNE,31,0.0,0.0,91,0.00,CLR,,0.00,WeatherDisplay:10.37,2013-01-11 09:10:00,
2013-01-11 04:15:00,24.9,22.6,30.50,NNE,31,0.0,0.0,91,0.00,CLR,,0.00,WeatherDisplay:10.37,2013-01-11 09:15:00,
2013-01-11 04:20:00,24.6,22.4,30.49,NNE,31,0.0,0.0,91,0.00,CLR,,0.00,WeatherDisplay:10.37,2013-01-11 09:20:00,
2013-01-11 04:25:00,24.8,22.5,30.49,NNE,31,0.0,0.0,91,0.00,CLR,,0.00,WeatherDisplay:10.37,2013-01-11 09:25:00,
2013-01-11 04:30:00,25.4,23.1,30.49,NNE,31,0.0,0.0,91,0.00,CLR,,0.00,WeatherDisplay:10.37,2013-01-11 09:30:00,
2013-01-11 04:40:00,25.7,23.4,30.49,NNE,31,0.0,0.0,91,0.00,CLR,,0.00,WeatherDisplay:10.37,2013-01-11 09:40:00,
2013-01-11 04:45:00,25.3,23.1,30.49,NNE,31,0.0,0.0,91,0.00,CLR,,0.00,WeatherDisplay:10.37,2013-01-11 09:45:00,
2013-01-11 04:50:00,26.2,23.9,30.49,NNE,31,0.0,0.0,91,0.00,CLR,,0.00,WeatherDisplay:10.37,2013-01-11 09:50:00,
2013-01-11 04:55:00,25.0,22.8,30.49,NNE,31,0.0,0.0,91,0.00,CLR,,0.00,WeatherDisplay:10.37,2013-01-11 09:55:00,
2013-01-11 05:00:00,24.4,22.1,30.49,NNE,31,0.0,0.0,91,0.00,CLR,,0.00,WeatherDisplay:10.37,2013-01-11 10:00:00,
2013-01-11 05:05:00,25.5,24.5,30.50,NNE,31,0.0,0.0,96,0.00,CLR,,0.00,WeatherDisplay:10.37,2013-01-11 10:05:00,
2013-01-11 05:15:00,25.1,24.2,30.50,NNE,31,0.0,0.0,96,0.00,CLR,,0.00,WeatherDisplay:10.37,2013-01-11 10:15:00,
2013-01-11 05:20:00,24.6,23.6,30.50,NNE,31,0.0,0.0,96,0.00,CLR,,0.00,WeatherDisplay:10.37,2013-01-11 10:20:00,
2013-01-11 05:30:00,25.7,24.7,30.50,NNE,31,0.0,0.0,96,0.00,CLR,,0.00,WeatherDisplay:10.37,2013-01-11 10:30:00,
2013-01-11 05:35:00,24.9,23.9,30.50,NNE,31,0.0,0.0,96,0.00,CLR,,0.00,WeatherDisplay:10.37,2013-01-11 10:35:00,
2013-01-11 05:40:00,25.4,24.4,30.51,NNE,31,0.0,0.0,96,0.00,CLR,,0.00,WeatherDisplay:10.37,2013-01-11 10:40:00,
2013-01-11 05:50:00,25.2,24.2,30.51,NNE,31,0.0,0.0,96,0.00,CLR,,0.00,WeatherDisplay:10.37,2013-01-11 10:50:00,
2013-01-11 06:00:00,24.6,23.6,30.50,NNE,31,0.0,0.0,96,0.00,CLR,,0.00,WeatherDisplay:10.37,2013-01-11 11:00:00,
2013-01-11 06:10:00,25.4,23.1,30.50,NNE,31,0.0,0.0,91,0.00,CLR,,0.00,WeatherDisplay:10.37,2013-01-11 11:10:00,
2013-01-11 06:15:00,25.4,23.1,30.50,NNE,31,0.0,0.0,91,0.00,CLR,,0.00,WeatherDisplay:10.37,2013-01-11 11:15:00,
2013-01-11 06:20:00,25.4,23.1,30.50,NNE,31,0.0,0.0,91,0.00,CLR,,0.00,WeatherDisplay:10.37,2013-01-11 11:20:00,
2013-01-11 06:25:00,24.1,21.9,30.51,NNE,31,0.0,0.0,91,0.00,CLR,,0.00,WeatherDisplay:10.37,2013-01-11 11:25:00,
2013-01-11 06:30:00,24.0,21.8,30.51,NNE,31,0.0,0.0,91,0.00,CLR,,0.00,WeatherDisplay:10.37,2013-01-11 11:30:00,
2013-01-11 06:35:00,23.4,21.2,30.50,NNE,31,0.0,0.0,91,0.00,CLR,,0.00,WeatherDisplay:10.37,2013-01-11 11:35:00,
2013-01-11 06:40:00,24.5,22.2,30.51,NNE,31,0.0,0.0,91,0.00,CLR,,0.00,WeatherDisplay:10.37,2013-01-11 11:40:00,
2013-01-11 06:45:00,24.6,22.3,30.51,NNE,31,0.0,0.0,91,0.00,CLR,,0.00,WeatherDisplay:10.37,2013-01-11 11:45:00,
2013-01-11 06:50:00,24.9,22.6,30.51,NNE,31,0.0,0.0,91,0.00,CLR,,0.00,WeatherDisplay:10.37,2013-01-11 11:50:00,
2013-01-11 06:55:00,24.8,22.6,30.51,NNE,31,0.0,0.0,91,0.00,CLR,,0.00,WeatherDisplay:10.37,2013-01-11 11:55:00,
2013-01-11 07:00:00,24.8,22.6,30.51,NNE,31,0.0,0.0,91,0.00,CLR,,0.00,WeatherDisplay:10.37,2013-01-11 12:00:00,
2013-01-11 07:05:00,24.4,22.2,30.51,NNE,31,0.0,0.0,91,0.00,CLR,,0.00,WeatherDisplay:10.37,2013-01-11 12:05:00,
2013-01-11 07:10:00,23.7,21.5,30.51,NNE,31,0.0,0.0,91,0.00,CLR,,0.00,WeatherDisplay:10.37,2013-01-11 12:10:00,
2013-01-11 07:15:00,24.4,22.1,30.51,NNE,31,0.0,0.0,91,0.00,CLR,,0.00,WeatherDisplay:10.37,2013-01-11 12:15:00,
2013-01-11 07:20:00,25.7,23.4,30.51,NNE,31,0.0,0.0,91,0.00,CLR,,0.00,WeatherDisplay:10.37,2013-01-11 12:20:00,
2013-01-11 07:25:00,25.8,23.5,30.51,NNE,31,0.0,0.0,91,0.00,CLR,,0.00,WeatherDisplay:10.37,2013-01-11 12:25:00,
2013-01-11 07:30:00,25.6,23.3,30.51,NNE,31,0.0,0.0,91,0.00,CLR,,0.00,WeatherDisplay:10.37,2013-01-11 12:30:00,
2013-01-11 07:35:00,25.4,23.1,30.51,NNE,31,0.0,0.0,91,0.00,CLR,,0.00,WeatherDisplay:10.37,2013-01-11 12:35:00,
2013-01-11 07:40:00,25.1,22.8,30.51,NNE,31,0.0,0.0,91,0.00,CLR,,0.00,WeatherDisplay:10.37,2013-01-11 12:40:00,
2013-01-11 07:45:00,24.8,22.6,30.51,NNE,31,0.0,0.0,91,0.00,CLR,,0.00,WeatherDisplay:10.37,2013-01-11 12:45:00,
2013-01-11 07:50:00,26.3,24.0,30.51,NNE,31,0.0,0.0,91,0.00,CLR,,0.00,WeatherDisplay:10.37,2013-01-11 12:50:00,
2013-01-11 07:55:00,26.4,24.1,30.51,NNE,31,0.0,0.0,91,0.00,CLR,,0.00,WeatherDisplay:10.37,2013-01-11 12:55:00,
2013-01-11 08:00:00,26.3,24.0,30.51,NNE,31,0.0,0.0,91,0.00,CLR,,0.00,WeatherDisplay:10.37,2013-01-11 13:00:00,
2013-01-11 08:05:00,24.9,24.9,30.51,NNE,31,0.0,0.0,100,0.00,CLR,,0.00,WeatherDisplay:10.37,2013-01-11 13:05:00,
2013-01-11 08:15:00,25.9,25.9,30.51,NNE,31,0.0,0.0,100,0.00,CLR,,0.00,WeatherDisplay:10.37,2013-01-11 13:15:00,
2013-01-11 08:20:00,27.1,27.1,30.50,NNE,31,0.0,0.0,100,0.00,CLR,,0.00,WeatherDisplay:10.37,2013-01-11 13:20:00,
2013-01-11 08:25:00,27.1,27.1,30.51,NNE,31,0.0,0.0,100,0.00,CLR,,0.00,WeatherDisplay:10.37,2013-01-11 13:25:00,
2013-01-11 08:30:00,26.6,26.6,30.51,NNE,31,0.0,0.0,100,0.00,CLR,,0.00,WeatherDisplay:10.37,2013-01-11 13:30:00,
2013-01-11 08:35:00,27.7,27.7,30.51,NNE,31,0.0,0.0,100,0.00,CLR,,0.00,WeatherDisplay:10.37,2013-01-11 13:35:00,
2013-01-11 08:40:00,27.2,27.2,30.50,NNE,31,0.0,0.0,100,0.00,CLR,,0.00,WeatherDisplay:10.37,2013-01-11 13:40:00,
2013-01-11 08:45:00,28.0,28.0,30.50,NNE,31,0.0,0.0,100,0.00,CLR,,0.00,WeatherDisplay:10.37,2013-01-11 13:45:00,
2013-01-11 08:50:00,29.1,29.1,30.50,NNE,31,0.0,0.0,100,0.00,CLR,,0.00,WeatherDisplay:10.37,2013-01-11 13:50:00,
2013-01-11 08:55:00,29.0,29.0,30.50,NNE,31,0.0,0.0,100,0.00,CLR,,0.00,WeatherDisplay:10.37,2013-01-11 13:55:00,
2013-01-11 09:00:00,28.7,28.7,30.50,NNE,31,0.0,0.0,100,0.00,CLR,,0.00,WeatherDisplay:10.37,2013-01-11 14:00:00,
2013-01-11 09:05:00,29.6,27.3,30.50,NNE,31,0.0,0.0,91,0.00,CLR,,0.00,WeatherDisplay:10.37,2013-01-11 14:05:00,
2013-01-11 09:10:00,30.0,27.7,30.50,NNE,31,0.0,0.0,91,0.00,CLR,,0.00,WeatherDisplay:10.37,2013-01-11 14:10:00,
2013-01-11 09:15:00,30.3,28.0,30.50,NNE,31,0.0,0.0,91,0.00,CLR,,0.00,WeatherDisplay:10.37,2013-01-11 14:15:00,
2013-01-11 09:20:00,31.0,28.7,30.50,NNE,31,0.0,0.0,91,0.00,CLR,,0.00,WeatherDisplay:10.37,2013-01-11 14:20:00,
2013-01-11 09:25:00,30.7,28.4,30.50,NNE,31,0.0,0.0,91,0.00,CLR,,0.00,WeatherDisplay:10.37,2013-01-11 14:25:00,
2013-01-11 09:30:00,31.4,29.0,30.50,NNE,31,0.0,0.0,91,0.00,CLR,,0.00,WeatherDisplay:10.37,2013-01-11 14:30:00,
2013-01-11 09:35:00,31.8,29.5,30.50,NNE,31,0.0,0.0,91,0.00,CLR,,0.00,WeatherDisplay:10.37,2013-01-11 14:35:00,
2013-01-11 09:40:00,33.0,30.6,30.50,NNE,31,0.0,0.0,91,0.00,CLR,,0.00,WeatherDisplay:10.37,2013-01-11 14:40:00,
2013-01-11 09:45:00,32.0,29.6,30.50,NNE,31,0.0,0.0,91,0.00,CLR,,0.00,WeatherDisplay:10.37,2013-01-11 14:45:00,
2013-01-11 09:50:00,32.6,30.3,30.50,NNE,31,0.0,0.0,91,0.00,CLR,,0.00,WeatherDisplay:10.37,2013-01-11 14:50:00,
2013-01-11 09:55:00,33.4,31.1,30.49,NNE,31,0.0,0.0,91,0.00,CLR,,0.00,WeatherDisplay:10.37,2013-01-11 14:55:00,
2013-01-11 10:00:00,33.0,30.7,30.49,NNE,31,0.0,0.0,91,0.00,CLR,,0.00,WeatherDisplay:10.37,2013-01-11 15:00:00,
2013-01-11 10:05:00,32.8,27.6,30.49,NNE,31,0.0,0.0,81,0.00,CLR,,0.00,WeatherDisplay:10.37,2013-01-11 15:05:00,
2013-01-11 10:10:00,33.9,28.6,30.49,NNE,31,0.0,0.0,81,0.00,CLR,,0.00,WeatherDisplay:10.37,2013-01-11 15:10:00,
2013-01-11 10:15:00,34.1,28.9,30.48,NNE,31,0.0,0.0,81,0.00,CLR,,0.00,WeatherDisplay:10.37,2013-01-11 15:15:00,
2013-01-11 10:20:00,34.4,29.1,30.48,NNE,31,0.0,0.0,81,0.00,CLR,,0.00,WeatherDisplay:10.37,2013-01-11 15:20:00,
2013-01-11 10:25:00,34.8,29.5,30.48,NNE,31,0.0,0.0,81,0.00,CLR,,0.00,WeatherDisplay:10.37,2013-01-11 15:25:00,
2013-01-11 10:30:00,35.0,29.8,30.48,NNE,31,0.0,0.0,81,0.00,CLR,,0.00,WeatherDisplay:10.37,2013-01-11 15:30:00,
2013-01-11 10:35:00,35.2,29.9,30.47,NNE,31,0.0,0.0,81,0.00,CLR,,0.00,WeatherDisplay:10.37,2013-01-11 15:35:00,
2013-01-11 10:40:00,34.1,28.9,30.47,NNE,31,0.0,0.0,81,0.00,CLR,,0.00,WeatherDisplay:10.37,2013-01-11 15:40:00,
2013-01-11 10:45:00,35.6,30.3,30.47,NNE,31,0.0,0.0,81,0.00,CLR,,0.00,WeatherDisplay:10.37,2013-01-11 15:45:00,
2013-01-11 10:50:00,35.7,30.5,30.47,NNE,31,0.0,0.0,81,0.00,CLR,,0.00,WeatherDisplay:10.37,2013-01-11 15:50:00,
2013-01-11 10:55:00,36.5,31.2,30.46,NNE,31,0.0,0.0,81,0.00,CLR,,0.00,WeatherDisplay:10.37,2013-01-11 15:55:00,
2013-01-11 11:00:00,35.5,30.2,30.46,NNE,31,0.0,0.0,81,0.00,CLR,,0.00,WeatherDisplay:10.37,2013-01-11 16:00:00,
2013-01-11 11:05:00,35.9,27.8,30.45,NNE,31,0.0,0.0,72,0.00,CLR,,0.00,WeatherDisplay:10.37,2013-01-11 16:05:00,
2013-01-11 11:10:00,36.5,28.3,30.44,NNE,31,0.0,0.0,72,0.00,CLR,,0.00,WeatherDisplay:10.37,2013-01-11 16:10:00,
2013-01-11 11:15:00,36.2,28.1,30.44,NNE,31,0.0,0.0,72,0.00,CLR,,0.00,WeatherDisplay:10.37,2013-01-11 16:15:00,
2013-01-11 11:20:00,36.3,28.2,30.43,NNE,31,0.0,0.0,72,0.00,CLR,,0.00,WeatherDisplay:10.37,2013-01-11 16:20:00,
2013-01-11 11:25:00,36.4,28.2,30.43,NNE,31,0.0,0.0,72,0.00,CLR,,0.00,WeatherDisplay:10.37,2013-01-11 16:25:00,
2013-01-11 11:30:00,37.0,28.8,30.43,NNE,31,0.0,0.0,72,0.00,CLR,,0.00,WeatherDisplay:10.37,2013-01-11 16:30:00,
2013-01-11 11:35:00,37.3,29.0,30.42,NNE,31,0.0,0.0,72,0.00,CLR,,0.00,WeatherDisplay:10.37,2013-01-11 16:35:00,
2013-01-11 11:40:00,37.2,29.0,30.42,NNE,31,0.0,0.0,72,0.00,CLR,,0.00,WeatherDisplay:10.37,2013-01-11 16:40:00,
2013-01-11 11:45:00,37.2,29.0,30.42,NNE,31,0.0,0.0,72,0.00,CLR,,0.00,WeatherDisplay:10.37,2013-01-11 16:45:00,
2013-01-11 11:50:00,36.9,28.7,30.42,NNE,31,0.0,0.0,72,0.00,CLR,,0.00,WeatherDisplay:10.37,2013-01-11 16:50:00,
2013-01-11 11:55:00,36.4,28.2,30.42,NNE,31,0.0,0.0,72,0.00,CLR,,0.00,WeatherDisplay:10.37,2013-01-11 16:55:00,
2013-01-11 12:00:00,37.0,28.8,30.42,NNE,31,0.0,0.0,72,0.00,CLR,,0.00,WeatherDisplay:10.37,2013-01-11 17:00:00,
2013-01-11 12:05:00,37.3,26.9,30.42,NNE,31,0.0,0.0,66,0.00,CLR,,0.00,WeatherDisplay:10.37,2013-01-11 17:05:00,
2013-01-11 12:10:00,37.0,26.7,30.42,NNE,31,0.0,0.0,66,0.00,CLR,,0.00,WeatherDisplay:10.37,2013-01-11 17:10:00,
2013-01-11 12:15:00,36.9,26.6,30.42,NNE,31,0.0,0.0,66,0.00,CLR,,0.00,WeatherDisplay:10.37,2013-01-11 17:15:00,
2013-01-11 12:20:00,37.2,26.9,30.42,NNE,28,0.0,5.0,66,0.00,CLR,,0.00,WeatherDisplay:10.37,2013-01-11 17:20:00,
2013-01-11 12:25:00,37.4,27.1,30.41,NNE,21,0.0,3.0,66,0.00,CLR,,0.00,WeatherDisplay:10.37,2013-01-11 17:25:00,
2013-01-11 12:30:00,37.8,27.4,30.41,NNE,17,0.0,0.0,66,0.00,CLR,,0.00,WeatherDisplay:10.37,2013-01-11 17:30:00,
2013-01-11 12:35:00,37.5,27.2,30.41,NNE,26,0.0,3.0,66,0.00,CLR,,0.00,WeatherDisplay:10.37,2013-01-11 17:35:00,
2013-01-11 12:40:00,37.5,27.1,30.40,NE,36,0.0,0.0,66,0.00,CLR,,0.00,WeatherDisplay:10.37,2013-01-11 17:40:00,
2013-01-11 12:45:00,37.2,26.8,30.40,NE,38,0.0,0.0,66,0.00,CLR,,0.00,WeatherDisplay:10.37,2013-01-11 17:45:00,
2013-01-11 12:50:00,36.6,26.3,30.40,NE,38,0.0,0.0,66,0.00,CLR,,0.00,WeatherDisplay:10.37,2013-01-11 17:50:00,
2013-01-11 12:55:00,37.0,26.7,30.39,NE,38,0.0,0.0,66,0.00,CLR,,0.00,WeatherDisplay:10.37,2013-01-11 17:55:00,
2013-01-11 13:00:00,36.9,26.6,30.39,NE,38,0.0,0.0,66,0.00,CLR,,0.00,WeatherDisplay:10.37,2013-01-11 18:00:00,
2013-01-11 13:10:00,37.2,22.9,30.40,NE,38,0.0,0.0,56,0.00,CLR,,0.00,WeatherDisplay:10.37,2013-01-11 18:10:00,
2013-01-11 13:15:00,37.3,23.0,30.40,NE,38,0.0,0.0,56,0.00,CLR,,0.00,WeatherDisplay:10.37,2013-01-11 18:15:00,
2013-01-11 13:20:00,37.3,23.0,30.39,NE,38,0.0,0.0,56,0.00,CLR,,0.00,WeatherDisplay:10.37,2013-01-11 18:20:00,
2013-01-11 13:25:00,37.3,23.0,30.39,NE,38,0.0,0.0,56,0.00,CLR,,0.00,WeatherDisplay:10.37,2013-01-11 18:25:00,
2013-01-11 13:30:00,37.2,23.0,30.39,NE,38,0.0,0.0,56,0.00,CLR,,0.00,WeatherDisplay:10.37,2013-01-11 18:30:00,
2013-01-11 13:35:00,37.0,22.7,30.39,NE,38,0.0,0.0,56,0.00,CLR,,0.00,WeatherDisplay:10.37,2013-01-11 18:35:00,
2013-01-11 13:40:00,37.2,22.9,30.39,NE,38,0.0,0.0,56,0.00,CLR,,0.00,WeatherDisplay:10.37,2013-01-11 18:40:00,
2013-01-11 13:45:00,36.9,22.7,30.38,NE,38,0.0,0.0,56,0.00,CLR,,0.00,WeatherDisplay:10.37,2013-01-11 18:45:00,
2013-01-11 13:50:00,36.8,22.5,30.38,NE,38,0.0,0.0,56,0.00,CLR,,0.00,WeatherDisplay:10.37,2013-01-11 18:50:00,
2013-01-11 13:55:00,36.3,22.1,30.38,NE,38,0.0,0.0,56,0.00,CLR,,0.00,WeatherDisplay:10.37,2013-01-11 18:55:00,
2013-01-11 14:00:00,36.4,22.2,30.38,NE,38,0.0,0.0,56,0.00,CLR,,0.00,WeatherDisplay:10.37,2013-01-11 19:00:00,
2013-01-11 14:05:00,36.1,21.9,30.37,NE,38,0.0,0.0,56,0.00,FEW,,0.00,WeatherDisplay:10.37,2013-01-11 19:05:00,
2013-01-11 14:10:00,36.4,22.2,30.38,NE,38,0.0,0.0,56,0.00,FEW,,0.00,WeatherDisplay:10.37,2013-01-11 19:10:00,
2013-01-11 14:15:00,36.2,22.0,30.37,NE,38,0.0,0.0,56,0.00,FEW,,0.00,WeatherDisplay:10.37,2013-01-11 19:15:00,
2013-01-11 14:25:00,35.9,21.7,30.36,NE,38,0.0,0.0,56,0.00,FEW,,0.00,WeatherDisplay:10.37,2013-01-11 19:25:00,
2013-01-11 14:30:00,36.1,21.9,30.36,NE,38,0.0,0.0,56,0.00,FEW,,0.00,WeatherDisplay:10.37,2013-01-11 19:30:00,
2013-01-11 14:35:00,36.3,22.1,30.36,NE,38,0.0,0.0,56,0.00,FEW,,0.00,WeatherDisplay:10.37,2013-01-11 19:35:00,
2013-01-11 14:40:00,35.6,21.4,30.36,NE,38,0.0,0.0,56,0.00,FEW,,0.00,WeatherDisplay:10.37,2013-01-11 19:40:00,
2013-01-11 14:45:00,35.6,21.5,30.36,NE,38,0.0,0.0,56,0.00,FEW,,0.00,WeatherDisplay:10.37,2013-01-11 19:45:00,
2013-01-11 14:50:00,35.7,21.5,30.35,NE,38,0.0,0.0,56,0.00,FEW,,0.00,WeatherDisplay:10.37,2013-01-11 19:50:00,
2013-01-11 14:55:00,36.0,21.8,30.35,NE,38,0.0,0.0,56,0.00,FEW,,0.00,WeatherDisplay:10.37,2013-01-11 19:55:00,
2013-01-11 15:00:00,36.2,22.0,30.35,NE,38,0.0,0.0,56,0.00,FEW,,0.00,WeatherDisplay:10.37,2013-01-11 20:00:00,
2013-01-11 15:05:00,35.8,24.5,30.35,NE,38,0.0,0.0,63,0.00,OVC,,0.00,WeatherDisplay:10.37,2013-01-11 20:05:00,
2013-01-11 15:10:00,35.8,24.5,30.35,NE,38,0.0,0.0,63,0.00,OVC,,0.00,WeatherDisplay:10.37,2013-01-11 20:10:00,
2013-01-11 15:15:00,35.9,24.5,30.35,NE,38,0.0,0.0,63,0.00,OVC,,0.00,WeatherDisplay:10.37,2013-01-11 20:15:00,
2013-01-11 15:20:00,35.8,24.4,30.34,NE,38,0.0,0.0,63,0.00,OVC,,0.00,WeatherDisplay:10.37,2013-01-11 20:20:00,
2013-01-11 15:25:00,35.9,24.5,30.33,NE,38,0.0,0.0,63,0.00,OVC,,0.00,WeatherDisplay:10.37,2013-01-11 20:25:00,
2013-01-11 15:30:00,35.6,24.2,30.33,NE,38,0.0,0.0,63,0.00,OVC,,0.00,WeatherDisplay:10.37,2013-01-11 20:30:00,
2013-01-11 15:35:00,35.9,24.5,30.33,NE,38,0.0,0.0,63,0.00,OVC,,0.00,WeatherDisplay:10.37,2013-01-11 20:35:00,
2013-01-11 15:40:00,36.0,24.6,30.34,NE,38,0.0,0.0,63,0.00,OVC,,0.00,WeatherDisplay:10.37,2013-01-11 20:40:00,
2013-01-11 15:45:00,35.5,24.1,30.33,NE,38,0.0,0.0,63,0.00,OVC,,0.00,WeatherDisplay:10.37,2013-01-11 20:45:00,
2013-01-11 15:50:00,35.3,24.0,30.33,NE,38,0.0,0.0,63,0.00,OVC,,0.00,WeatherDisplay:10.37,2013-01-11 20:50:00,
2013-01-11 15:55:00,35.3,24.0,30.33,NE,38,0.0,0.0,63,0.00,OVC,,0.00,WeatherDisplay:10.37,2013-01-11 20:55:00,
2013-01-11 16:00:00,35.1,23.8,30.32,NE,38,0.0,0.0,63,0.00,OVC,,0.00,WeatherDisplay:10.37,2013-01-11 21:00:00,
2013-01-11 16:05:00,35.6,25.3,30.32,NE,38,0.0,0.0,66,0.00,OVC,,0.00,WeatherDisplay:10.37,2013-01-11 21:05:00,
2013-01-11 16:10:00,35.1,24.9,30.32,NE,38,0.0,0.0,66,0.00,OVC,,0.00,WeatherDisplay:10.37,2013-01-11 21:10:00,
2013-01-11 16:15:00,35.2,25.0,30.32,NE,38,0.0,0.0,66,0.00,OVC,,0.00,WeatherDisplay:10.37,2013-01-11 21:15:00,
2013-01-11 16:20:00,35.4,25.1,30.32,NE,38,0.0,0.0,66,0.00,OVC,,0.00,WeatherDisplay:10.37,2013-01-11 21:20:00,
2013-01-11 16:25:00,34.7,24.5,30.32,NE,38,0.0,0.0,66,0.00,OVC,,0.00,WeatherDisplay:10.37,2013-01-11 21:25:00,
2013-01-11 16:30:00,34.7,24.5,30.32,NE,38,0.0,0.0,66,0.00,OVC,,0.00,WeatherDisplay:10.37,2013-01-11 21:30:00,
2013-01-11 16:35:00,34.9,24.7,30.32,NE,38,0.0,0.0,66,0.00,OVC,,0.00,WeatherDisplay:10.37,2013-01-11 21:35:00,
2013-01-11 16:40:00,34.9,24.7,30.32,NE,38,0.0,0.0,66,0.00,OVC,,0.00,WeatherDisplay:10.37,2013-01-11 21:40:00,
2013-01-11 16:50:00,34.8,24.6,30.32,NE,38,0.0,0.0,66,0.00,OVC,,0.00,WeatherDisplay:10.37,2013-01-11 21:50:00,
2013-01-11 16:55:00,34.4,24.2,30.32,NE,38,0.0,0.0,66,0.00,OVC,,0.00,WeatherDisplay:10.37,2013-01-11 21:55:00,
2013-01-11 17:05:00,35.2,26.0,30.32,NE,38,0.0,0.0,69,0.00,OVC,,0.00,WeatherDisplay:10.37,2013-01-11 22:05:00,
2013-01-11 17:15:00,34.4,25.3,30.31,NE,38,0.0,0.0,69,0.00,OVC,,0.00,WeatherDisplay:10.37,2013-01-11 22:15:00,
2013-01-11 17:20:00,34.5,25.4,30.31,NE,38,0.0,0.0,69,0.00,OVC,,0.00,WeatherDisplay:10.37,2013-01-11 22:20:00,
2013-01-11 17:25:00,34.3,25.2,30.31,NE,38,0.0,0.0,69,0.00,OVC,,0.00,WeatherDisplay:10.37,2013-01-11 22:25:00,
2013-01-11 17:30:00,33.6,24.5,30.31,NE,38,0.0,0.0,69,0.00,OVC,,0.00,WeatherDisplay:10.37,2013-01-11 22:30:00,
2013-01-11 17:35:00,33.9,24.8,30.30,NE,38,0.0,0.0,69,0.00,OVC,,0.00,WeatherDisplay:10.37,2013-01-11 22:35:00,
2013-01-11 17:40:00,33.3,24.2,30.30,NE,38,0.0,0.0,69,0.00,OVC,,0.00,WeatherDisplay:10.37,2013-01-11 22:40:00,
2013-01-11 17:45:00,33.2,24.1,30.30,NE,38,0.0,0.0,69,0.00,OVC,,0.00,WeatherDisplay:10.37,2013-01-11 22:45:00,
2013-01-11 17:50:00,33.3,24.2,30.30,NE,38,0.0,0.0,69,0.00,OVC,,0.00,WeatherDisplay:10.37,2013-01-11 22:50:00,
2013-01-11 17:55:00,32.7,23.6,30.29,NE,38,0.0,0.0,69,0.00,OVC,,0.00,WeatherDisplay:10.37,2013-01-11 22:55:00,
2013-01-11 18:00:00,32.5,23.4,30.29,NE,38,0.0,0.0,69,0.00,OVC,,0.00,WeatherDisplay:10.37,2013-01-11 23:00:00,
2013-01-11 18:05:00,33.1,24.7,30.28,NE,38,0.0,0.0,71,0.00,-RA,,0.00,WeatherDisplay:10.37,2013-01-11 23:05:00,
2013-01-11 18:10:00,34.0,25.6,30.29,NE,38,0.0,0.0,71,0.00,-RA,,0.00,WeatherDisplay:10.37,2013-01-11 23:10:00,
2013-01-11 18:15:00,34.5,26.1,30.28,NE,38,0.0,0.0,71,0.00,-RA,,0.00,WeatherDisplay:10.37,2013-01-11 23:15:00,
2013-01-11 18:20:00,33.3,24.9,30.28,NE,38,0.0,0.0,71,0.01,-RA,,0.01,WeatherDisplay:10.37,2013-01-11 23:20:00,
2013-01-11 18:25:00,33.3,24.9,30.28,NE,38,0.0,0.0,71,0.00,-RA,,0.01,WeatherDisplay:10.37,2013-01-11 23:25:00,
2013-01-11 18:30:00,33.2,24.8,30.28,NE,38,0.0,0.0,71,0.00,-RA,,0.01,WeatherDisplay:10.37,2013-01-11 23:30:00,
2013-01-11 18:35:00,33.6,25.2,30.28,NE,38,0.0,0.0,71,0.01,-RA,,0.02,WeatherDisplay:10.37,2013-01-11 23:35:00,
2013-01-11 18:45:00,33.0,24.6,30.28,NE,38,0.0,0.0,71,0.01,-RA,,0.03,WeatherDisplay:10.37,2013-01-11 23:45:00,
2013-01-11 18:50:00,32.8,24.4,30.27,NE,38,0.0,0.0,71,0.00,-RA,,0.03,WeatherDisplay:10.37,2013-01-11 23:50:00,
2013-01-11 18:55:00,33.1,24.7,30.28,NE,38,0.0,0.0,71,0.01,-RA,,0.04,WeatherDisplay:10.37,2013-01-11 23:55:00,
2013-01-11 19:05:00,33.6,28.4,30.27,NE,38,0.0,0.0,81,0.00,-RA,,0.04,WeatherDisplay:10.37,2013-01-12 00:05:00,
2013-01-11 19:10:00,33.4,28.1,30.27,NE,38,0.0,0.0,81,0.00,-RA,,0.04,WeatherDisplay:10.37,2013-01-12 00:10:00,
2013-01-11 19:15:00,33.0,27.8,30.27,NE,38,0.0,0.0,81,0.00,-RA,,0.04,WeatherDisplay:10.37,2013-01-12 00:15:00,
2013-01-11 19:20:00,32.9,27.8,30.27,NE,38,0.0,0.0,81,0.00,-RA,,0.04,WeatherDisplay:10.37,2013-01-12 00:20:00,
2013-01-11 19:25:00,33.0,27.8,30.27,NE,38,0.0,0.0,81,0.00,-RA,,0.04,WeatherDisplay:10.37,2013-01-12 00:25:00,
2013-01-11 19:30:00,33.1,27.9,30.27,NE,38,0.0,0.0,81,0.01,-RA,,0.05,WeatherDisplay:10.37,2013-01-12 00:30:00,
2013-01-11 19:35:00,32.6,27.4,30.27,NE,38,0.0,0.0,81,0.00,-RA,,0.05,WeatherDisplay:10.37,2013-01-12 00:35:00,
2013-01-11 19:40:00,33.4,28.2,30.27,NE,38,0.0,0.0,81,0.00,-RA,,0.05,WeatherDisplay:10.37,2013-01-12 00:40:00,
2013-01-11 19:50:00,32.9,27.7,30.26,NE,38,0.0,0.0,81,0.00,-RA,,0.05,WeatherDisplay:10.37,2013-01-12 00:50:00,
2013-01-11 19:55:00,33.2,28.0,30.26,NE,38,0.0,0.0,81,0.00,-RA,,0.05,WeatherDisplay:10.37,2013-01-12 00:55:00,
2013-01-11 20:00:00,33.1,27.9,30.26,NE,38,0.0,0.0,81,0.00,-RA,,0.05,WeatherDisplay:10.37,2013-01-12 01:00:00,
2013-01-11 20:05:00,33.6,31.3,30.26,NE,38,0.0,0.0,91,0.00,-RA,,0.05,WeatherDisplay:10.37,2013-01-12 01:05:00,
2013-01-11 20:10:00,33.8,31.5,30.26,NE,38,0.0,0.0,91,0.00,-RA,,0.05,WeatherDisplay:10.37,2013-01-12 01:10:00,
2013-01-11 20:15:00,33.2,30.9,30.26,NE,38,0.0,0.0,91,0.00,-RA,,0.05,WeatherDisplay:10.37,2013-01-12 01:15:00,
2013-01-11 20:25:00,33.1,30.7,30.25,NE,38,0.0,0.0,91,0.00,-RA,,0.05,WeatherDisplay:10.37,2013-01-12 01:25:00,
2013-01-11 20:30:00,32.9,30.5,30.25,NE,38,0.0,0.0,91,0.01,-RA,,0.06,WeatherDisplay:10.37,2013-01-12 01:30:00,
2013-01-11 20:35:00,32.8,30.4,30.25,NE,38,0.0,0.0,91,0.00,-RA,,0.06,WeatherDisplay:10.37,2013-01-12 01:35:00,
2013-01-11 20:40:00,32.5,30.1,30.25,NE,38,0.0,0.0,91,0.00,-RA,,0.06,WeatherDisplay:10.37,2013-01-12 01:40:00,
2013-01-11 20:45:00,32.1,29.7,30.25,NE,38,0.0,0.0,91,0.00,-RA,,0.06,WeatherDisplay:10.37,2013-01-12 01:45:00,
2013-01-11 20:55:00,33.1,30.7,30.25,NE,38,0.0,0.0,91,0.00,-RA,,0.06,WeatherDisplay:10.37,2013-01-12 01:55:00,
2013-01-11 21:00:00,32.4,30.0,30.25,NE,38,0.0,0.0,91,0.01,-RA,,0.07,WeatherDisplay:10.37,2013-01-12 02:00:00,
2013-01-11 21:05:00,33.3,30.9,30.25,NE,38,0.0,0.0,91,0.00,RA,,0.07,WeatherDisplay:10.37,2013-01-12 02:05:00,
2013-01-11 21:10:00,33.1,30.7,30.25,NE,38,0.0,0.0,91,0.00,OVC,,0.07,WeatherDisplay:10.37,2013-01-12 02:10:00,
2013-01-11 21:15:00,33.1,30.7,30.25,NE,38,0.0,0.0,91,0.01,RA,,0.08,WeatherDisplay:10.37,2013-01-12 02:15:00,
2013-01-11 21:25:00,32.9,30.6,30.24,NE,38,0.0,0.0,91,0.00,OVC,,0.08,WeatherDisplay:10.37,2013-01-12 02:25:00,
2013-01-11 21:30:00,32.8,30.5,30.24,NE,38,0.0,0.0,91,0.00,OVC,,0.08,WeatherDisplay:10.37,2013-01-12 02:30:00,
2013-01-11 21:40:00,33.3,30.9,30.24,NE,38,0.0,0.0,91,0.00,RA,,0.09,WeatherDisplay:10.37,2013-01-12 02:40:00,
2013-01-11 21:50:00,33.5,31.2,30.24,NE,38,0.0,0.0,91,0.00,OVC,,0.09,WeatherDisplay:10.37,2013-01-12 02:50:00,
2013-01-11 21:55:00,33.3,31.5,30.24,NE,38,0.0,0.0,93,0.00,-RA,,0.09,WeatherDisplay:10.37,2013-01-12 02:55:00,
2013-01-11 22:00:00,32.5,30.7,30.24,NE,38,0.0,0.0,93,0.00,-RA,,0.09,WeatherDisplay:10.37,2013-01-12 03:00:00,
2013-01-11 22:10:00,33.1,33.1,30.26,NE,38,0.0,0.0,100,0.01,-RA,,0.10,WeatherDisplay:10.37,2013-01-12 03:10:00,
2013-01-11 22:15:00,33.3,33.3,30.25,NE,38,0.0,0.0,100,0.00,-RA,,0.10,WeatherDisplay:10.37,2013-01-12 03:15:00,
2013-01-11 22:25:00,32.9,32.9,30.25,NE,38,0.0,0.0,100,0.01,-RA,,0.12,WeatherDisplay:10.37,2013-01-12 03:25:00,
2013-01-11 22:35:00,33.0,33.0,30.25,NE,38,0.0,0.0,100,0.00,-RA,,0.12,WeatherDisplay:10.37,2013-01-12 03:35:00,
2013-01-11 22:40:00,33.9,33.9,30.24,NE,38,0.0,0.0,100,0.01,-RA,,0.13,WeatherDisplay:10.37,2013-01-12 03:40:00,
2013-01-11 22:45:00,34.1,34.1,30.24,NE,38,0.0,0.0,100,0.00,-RA,,0.13,WeatherDisplay:10.37,2013-01-12 03:45:00,
2013-01-11 22:55:00,34.1,34.1,30.24,NE,38,0.0,0.0,100,0.01,RA,,0.14,WeatherDisplay:10.37,2013-01-12 03:55:00,
2013-01-11 23:00:00,33.5,33.5,30.24,NE,38,0.0,0.0,100,0.00,RA,,0.14,WeatherDisplay:10.37,2013-01-12 04:00:00,
2013-01-11 23:10:00,33.6,33.6,30.24,NE,38,0.0,0.0,100,0.00,-RA,,0.14,WeatherDisplay:10.37,2013-01-12 04:10:00,
2013-01-11 23:15:00,34.2,34.2,30.24,NE,38,0.0,0.0,100,0.00,-RA,,0.14,WeatherDisplay:10.37,2013-01-12 04:15:00,
2013-01-11 23:25:00,33.0,33.0,30.24,NE,38,0.0,0.0,100,0.00,-RA,,0.15,WeatherDisplay:10.37,2013-01-12 04:25:00,
2013-01-11 23:30:00,34.0,34.0,30.23,NE,38,0.0,0.0,100,0.00,-RA,,0.15,WeatherDisplay:10.37,2013-01-12 04:30:00,
2013-01-11 23:40:00,32.9,32.9,30.23,NE,38,0.0,0.0,100,0.01,-RA,,0.16,WeatherDisplay:10.37,2013-01-12 04:40:00,
2013-01-11 23:45:00,33.0,31.2,30.22,NE,38,0.0,0.0,93,0.00,-RA,,0.16,WeatherDisplay:10.37,2013-01-12 04:45:00,
2013-01-11 23:50:00,33.5,31.7,30.22,NE,38,0.0,0.0,93,0.00,-RA,,0.16,WeatherDisplay:10.37,2013-01-12 04:50:00,
2013-01-11 23:55:00,34.2,32.4,30.22,NE,38,0.0,0.0,93,0.00,-RA,,0.16,WeatherDisplay:10.37,2013-01-12 04:55:00,